Time;durP1;ratioP1;P1;durP2;ratioP2;P2;SDS_P1;SDS_P2;PMS_P1;PMS_P2;Temp;Humidity;BMP_temperature;BMP_pressure;BME280_temperature;BME280_humidity;BME280_pressure;Samples;Min_cycle;Max_cycle;Signal;HPM_P1;HPM_P2
2022/11/05 00:10:36;;;;;;;21.60;17.80;;;;;;;10.51;82.55;92414.81;5107444;28;20223;-71
2022/11/05 00:18:30;;;;;;;25.87;19.47;;;;;;;10.40;84.38;92429.06;5108814;28;20193;-71
2022/11/05 00:20:55;;;;;;;21.90;18.10;;;;;;;10.50;83.85;92420.31;5106096;28;20229;-71
2022/11/05 00:26:10;;;;;;;22.47;19.40;;;;;;;10.55;83.64;92409.81;5105633;28;20248;-71
2022/11/05 00:28:36;;;;;;;22.60;19.57;;;;;;;10.39;85.12;92424.13;5107552;28;20184;-71
2022/11/05 00:31:05;;;;;;;27.40;19.77;;;;;;;10.42;84.97;92416.50;5105097;28;20220;-72
2022/11/05 00:33:31;;;;;;;21.87;19.47;;;;;;;10.52;84.34;92416.34;5107620;28;20217;-70
2022/11/05 00:35:57;;;;;;;22.97;18.63;;;;;;;10.59;84.34;92411.56;5090556;28;20224;-72
2022/11/05 00:38:22;;;;;;;20.23;17.53;;;;;;;10.51;83.81;92407.00;5089219;28;20194;-71
2022/11/05 00:40:48;;;;;;;23.03;18.00;;;;;;;10.60;83.62;92417.59;5101981;28;20788;-71
2022/11/05 00:45:57;;;;;;;20.13;16.70;;;;;;;10.58;82.79;92402.22;5106984;28;20250;-70
2022/11/05 00:51:07;;;;;;;19.40;17.43;;;;;;;10.69;82.41;92403.59;5107784;28;20250;-71
2022/11/05 00:53:33;;;;;;;19.13;15.90;;;;;;;10.61;82.91;92391.19;5107306;28;20197;-72
2022/11/05 00:55:59;;;;;;;18.07;16.27;;;;;;;10.79;81.71;92387.78;5106516;28;20246;-71
2022/11/05 00:58:26;;;;;;;23.07;17.10;;;;;;;10.77;81.35;92399.59;5107473;28;20179;-71
2022/11/05 01:01:01;;;;;;;19.43;15.97;;;;;;;10.81;82.04;92401.34;5104688;28;20223;-71
2022/11/05 01:03:36;;;;;;;20.10;15.20;;;;;;;10.84;81.69;92385.09;5108921;28;20196;-71
2022/11/05 01:06:06;;;;;;;20.10;17.93;;;;;;;10.72;82.66;92381.38;5105887;28;20952;-71
2022/11/05 01:08:32;;;;;;;18.73;16.77;;;;;;;10.66;82.21;92378.03;5108325;28;20226;-71
2022/11/05 01:10:58;;;;;;;22.23;16.27;;;;;;;10.61;82.83;92370.31;5108605;28;20219;-71
2022/11/05 01:13:28;;;;;;;17.97;16.10;;;;;;;10.71;82.76;92385.03;5107787;28;20213;-71
2022/11/05 01:15:55;;;;;;;23.20;17.80;;;;;;;10.75;82.22;92392.03;5107359;28;20295;-71
2022/11/05 01:18:22;;;;;;;28.77;15.80;;;;;;;10.59;82.57;92385.47;5107594;28;20271;-71
2022/11/05 01:20:47;;;;;;;19.10;16.63;;;;;;;10.71;82.38;92388.41;5107272;28;20222;-71
2022/11/05 01:23:13;;;;;;;20.17;16.17;;;;;;;10.69;82.58;92393.13;5106477;28;20201;-70
2022/11/05 01:25:40;;;;;;;22.10;16.67;;;;;;;10.58;83.59;92386.53;5108840;28;20311;-71
2022/11/05 01:28:08;;;;;;;19.10;17.47;;;;;;;10.61;83.69;92359.09;5108797;28;20207;-72
2022/11/05 01:30:34;;;;;;;25.07;17.73;;;;;;;10.78;83.08;92369.78;5107935;28;20235;-72
2022/11/05 01:32:59;;;;;;;20.57;17.33;;;;;;;10.35;85.18;92361.28;5111520;28;20240;-72
2022/11/05 01:35:24;;;;;;;23.77;17.23;;;;;;;10.43;84.88;92359.88;5109441;28;20236;-71
2022/11/05 01:37:50;;;;;;;17.97;15.63;;;;;;;10.50;84.52;92344.63;5112267;28;20218;-70
2022/11/05 01:40:18;;;;;;;24.17;17.17;;;;;;;10.42;84.36;92327.78;5110513;28;20232;-71
2022/11/05 01:42:44;;;;;;;20.60;16.53;;;;;;;10.35;84.54;92345.63;5112548;28;20192;-71
2022/11/05 01:45:20;;;;;;;28.50;16.70;;;;;;;10.28;83.55;92334.00;5110245;28;20224;-71
2022/11/05 01:48:13;;;;;;;20.07;16.13;;;;;;;10.55;82.38;92334.88;5112260;28;20264;-72
2022/11/05 01:50:49;;;;;;;19.30;15.87;;;;;;;10.16;84.54;92354.53;5106328;28;20234;-71
2022/11/05 01:53:34;;;;;;;20.10;14.37;;;;;;;10.18;83.88;92350.56;5109702;28;20195;-71
2022/11/05 01:56:06;;;;;;;23.30;14.93;;;;;;;10.30;83.21;92327.47;5108390;28;20250;-71
2022/11/05 01:58:47;;;;;;;20.20;15.27;;;;;;;10.32;83.65;92324.56;5109734;28;20210;-71
2022/11/05 02:01:13;;;;;;;18.57;16.67;;;;;;;10.26;83.24;92321.22;5108881;28;20227;-71
2022/11/05 02:03:40;;;;;;;16.50;14.90;;;;;;;10.25;83.80;92311.88;5110386;28;20227;-71
2022/11/05 02:06:08;;;;;;;19.83;14.57;;;;;;;10.11;83.96;92320.69;5110043;28;20212;-71
2022/11/05 02:08:58;;;;;;;15.70;13.90;;;;;;;10.21;83.31;92323.16;5110284;28;20180;-72
2022/11/05 02:11:24;;;;;;;18.00;16.23;;;;;;;9.94;84.40;92307.31;5108158;28;20268;-71
2022/11/05 02:13:50;;;;;;;17.00;15.23;;;;;;;9.98;84.33;92322.13;5110728;28;20211;-70
2022/11/05 02:16:21;;;;;;;17.13;15.40;;;;;;;10.31;82.38;92321.16;5110280;28;20223;-71
2022/11/05 02:18:46;;;;;;;20.37;15.13;;;;;;;10.22;83.00;92328.09;5109397;28;20177;-71
2022/11/05 02:21:34;;;;;;;19.00;15.80;;;;;;;10.10;83.24;92326.97;5109173;28;20244;-71
2022/11/05 02:24:28;;;;;;;18.27;15.10;;;;;;;10.16;82.82;92329.22;5111234;28;20215;-71
2022/11/05 02:27:05;;;;;;;19.50;15.30;;;;;;;9.96;83.89;92332.03;5071573;28;20242;-71
2022/11/05 02:30:30;;;;;;;15.97;14.37;;;;;;;9.91;84.14;92328.75;5091674;28;20224;-72
2022/11/05 02:33:34;;;;;;;18.90;14.87;;;;;;;9.83;85.20;92327.53;5059191;28;20205;-69
2022/11/05 02:36:19;;;;;;;20.13;15.80;;;;;;;9.81;85.05;92319.22;5046306;28;20229;-71
2022/11/05 02:39:00;;;;;;;17.27;15.60;;;;;;;9.85;84.30;92316.84;5108788;28;20216;-70
2022/11/05 02:42:24;;;;;;;19.93;17.43;;;;;;;9.80;85.43;92328.84;5089960;28;20233;-71
2022/11/05 02:45:16;;;;;;;20.00;15.93;;;;;;;9.83;85.62;92330.16;5064114;28;20249;-70
2022/11/05 02:48:15;;;;;;;21.60;16.03;;;;;;;9.77;85.90;92333.88;5086031;28;20265;-71
2022/11/05 02:51:18;;;;;;;17.70;15.33;;;;;;;9.58;86.50;92323.41;5087440;28;20228;-72
2022/11/05 02:53:50;;;;;;;18.13;16.20;;;;;;;9.63;85.75;92330.41;5090753;28;20195;-70
2022/11/05 02:56:40;;;;;;;16.57;14.83;;;;;;;9.63;85.31;92338.22;5086999;28;20301;-70
2022/11/05 02:59:06;;;;;;;21.10;16.23;;;;;;;9.71;84.76;92321.97;5085823;28;20224;-71
2022/11/05 03:01:33;;;;;;;18.77;15.97;;;;;;;9.70;85.32;92336.03;5089614;28;20194;-71
2022/11/05 03:04:02;;;;;;;17.53;15.73;;;;;;;9.61;85.48;92333.28;5089938;28;20223;-71
2022/11/05 03:06:46;;;;;;;19.10;15.37;;;;;;;9.70;85.26;92325.59;5088927;28;20288;-71
2022/11/05 03:09:44;;;;;;;18.27;16.47;;;;;;;9.81;85.57;92327.03;5090864;28;20180;-71
2022/11/05 03:12:18;;;;;;;16.47;14.63;;;;;;;9.73;85.88;92318.00;5094456;28;20222;-71
2022/11/05 03:15:32;;;;;;;21.90;16.03;;;;;;;9.78;85.26;92317.97;5096617;28;20236;-71
2022/11/05 03:18:25;;;;;;;19.00;15.17;;;;;;;9.67;85.02;92313.13;5046923;28;20201;-71
2022/11/05 03:21:12;;;;;;;25.20;16.77;;;;;;;9.72;85.30;92329.50;5101725;28;20250;-70
2022/11/05 03:24:25;;;;;;;19.53;15.83;;;;;;;9.67;85.41;92324.34;5108534;28;20195;-71
2022/11/05 03:26:57;;;;;;;18.73;14.63;;;;;;;9.60;84.74;92334.31;5079206;28;20224;-70
2022/11/05 03:29:51;;;;;;;16.83;13.70;;;;;;;9.65;85.22;92333.47;5091160;28;20181;-71
2022/11/05 03:32:19;;;;;;;21.77;15.27;;;;;;;9.28;85.71;92294.31;5107654;28;20194;-72
2022/11/05 03:34:51;;;;;;;17.53;15.63;;;;;;;9.59;85.04;92337.22;5108949;28;20283;-71
2022/11/05 03:37:19;;;;;;;17.83;15.30;;;;;;;9.50;84.74;92344.09;5108185;28;20190;-71
2022/11/05 03:39:50;;;;;;;18.97;14.83;;;;;;;9.51;84.91;92354.22;5108137;28;20264;-70
2022/11/05 03:42:19;;;;;;;21.60;15.27;;;;;;;9.59;84.53;92361.44;5107148;28;20259;-70
2022/11/05 03:44:51;;;;;;;20.53;16.10;;;;;;;9.64;84.54;92363.22;5108332;28;20225;-71
2022/11/05 03:47:21;;;;;;;17.30;15.40;;;;;;;9.65;84.43;92356.94;5107916;28;20169;-70
2022/11/05 03:50:06;;;;;;;15.83;14.33;;;;;;;9.54;85.24;92360.75;5109164;28;20220;-71
2022/11/05 03:52:38;;;;;;;17.73;13.33;;;;;;;9.66;84.41;92358.50;5109124;28;20230;-71
2022/11/05 03:55:04;;;;;;;19.93;14.10;;;;;;;9.67;84.20;92375.69;5106467;28;20219;-69
2022/11/05 03:57:33;;;;;;;14.77;13.40;;;;;;;9.62;84.19;92373.13;5108778;28;20188;-71
2022/11/05 03:59:59;;;;;;;14.77;13.20;;;;;;;9.73;83.68;92369.34;5105438;28;20238;-71
2022/11/05 04:02:25;;;;;;;14.73;12.50;;;;;;;9.83;82.76;92379.69;5109968;28;20231;-71
2022/11/05 04:04:51;;;;;;;14.00;12.70;;;;;;;9.75;82.54;92378.47;5106881;28;20235;-71
2022/11/05 04:17:05;;;;;;;17.33;15.67;;;;;;;9.61;82.81;92371.59;5108995;28;20219;-71
2022/11/05 04:18:18;;;;;;;17.53;12.53;;;;;;;9.65;82.31;92377.78;5109558;28;20183;-71
2022/11/05 04:26:12;;;;;;;15.67;14.27;;;;;;;9.74;83.26;92381.34;5106414;28;20223;-72
2022/11/05 04:31:21;;;;;;;14.37;12.97;;;;;;;9.66;83.00;92385.31;5107584;28;20238;-71
2022/11/05 04:33:46;;;;;;;15.20;13.27;;;;;;;9.66;82.72;92389.78;5107756;28;20188;-71
2022/11/05 04:36:11;;;;;;;16.53;14.93;;;;;;;9.61;82.81;92392.44;5108258;28;20247;-71
2022/11/05 04:38:37;;;;;;;15.73;14.00;;;;;;;9.64;83.20;92382.25;5107362;28;20192;-70
2022/11/05 04:41:13;;;;;;;17.73;13.50;;;;;;;9.46;82.85;92380.34;5106962;28;20733;-71
2022/11/05 04:43:38;;;;;;;14.73;13.30;;;;;;;9.48;83.04;92388.66;5105647;28;20195;-71
2022/11/05 04:46:04;;;;;;;16.53;13.57;;;;;;;9.57;82.59;92407.09;5106976;28;20474;-71
2022/11/05 04:48:29;;;;;;;15.23;13.83;;;;;;;9.66;81.87;92395.75;5108027;28;20214;-71
2022/11/05 04:50:54;;;;;;;13.83;12.33;;;;;;;9.72;81.44;92401.72;5108495;28;20235;-72
2022/11/05 04:53:20;;;;;;;14.53;12.83;;;;;;;9.70;81.20;92394.16;5108220;28;20176;-70
2022/11/05 04:55:45;;;;;;;13.63;12.40;;;;;;;9.78;80.77;92393.56;5108303;28;20223;-68
2022/11/05 04:58:10;;;;;;;13.33;12.23;;;;;;;9.80;80.27;92388.81;5106661;28;20227;-68
2022/11/05 05:00:36;;;;;;;15.23;13.87;;;;;;;9.76;80.92;92390.44;5107287;28;20216;-69
2022/11/05 05:03:01;;;;;;;14.77;13.40;;;;;;;9.83;81.15;92390.09;5107941;28;20184;-68
2022/11/05 05:05:26;;;;;;;14.80;13.37;;;;;;;9.87;80.76;92396.31;5108350;28;20229;-71
2022/11/05 05:07:52;;;;;;;13.77;12.37;;;;;;;9.79;81.93;92397.72;5109608;28;20539;-71
2022/11/05 05:10:17;;;;;;;11.43;10.47;;;;;;;9.91;80.57;92397.31;5110391;28;20235;-71
2022/11/05 05:12:42;;;;;;;13.73;12.63;;;;;;;9.78;81.03;92400.59;5112088;28;20184;-70
2022/11/05 05:15:08;;;;;;;13.50;12.17;;;;;;;9.82;81.59;92402.34;5111430;28;20250;-71
2022/11/05 05:17:33;;;;;;;14.93;13.50;;;;;;;9.87;81.22;92406.75;5111244;28;20229;-71
2022/11/05 05:22:43;;;;;;;14.43;12.97;;;;;;;9.80;81.47;92406.31;5110663;28;20192;-69
2022/11/05 05:25:08;;;;;;;14.33;12.87;;;;;;;9.75;81.25;92394.13;5110645;28;20236;-71
2022/11/05 05:27:33;;;;;;;12.10;11.10;;;;;;;9.87;81.35;92401.53;5112187;28;20298;-71
2022/11/05 05:29:59;;;;;;;13.50;12.40;;;;;;;9.91;82.02;92415.56;5111150;28;20263;-69
2022/11/05 05:32:25;;;;;;;16.00;12.80;;;;;;;9.99;81.64;92420.19;5109951;28;20212;-69
2022/11/05 05:34:51;;;;;;;14.37;12.07;;;;;;;10.14;81.36;92430.44;5110752;28;20314;-71
2022/11/05 05:37:17;;;;;;;14.30;12.80;;;;;;;10.08;81.60;92431.56;5110692;28;20185;-71
2022/11/05 05:39:43;;;;;;;14.43;12.97;;;;;;;10.10;82.00;92439.88;5108073;28;20239;-71
2022/11/05 05:42:09;;;;;;;17.70;13.30;;;;;;;10.26;81.28;92445.69;5111285;28;20188;-70
2022/11/05 05:44:34;;;;;;;16.33;14.13;;;;;;;10.21;80.38;92414.47;5109533;28;20306;-71
2022/11/05 05:47:00;;;;;;;16.07;14.50;;;;;;;10.48;80.55;92451.91;5109552;28;20204;-71
2022/11/05 05:49:25;;;;;;;18.17;16.27;;;;;;;10.81;79.26;92456.16;5110150;28;20276;-68
2022/11/05 05:51:50;;;;;;;19.10;16.77;;;;;;;10.58;80.61;92457.03;5110417;28;20228;-70
2022/11/05 05:54:16;;;;;;;24.97;18.83;;;;;;;10.78;80.05;92443.69;5110091;28;20226;-70
2022/11/05 05:56:43;;;;;;;20.10;18.00;;;;;;;10.96;80.17;92450.72;5110305;28;20179;-70
2022/11/05 05:59:08;;;;;;;18.90;17.17;;;;;;;11.02;79.42;92439.13;5107055;28;20216;-71
2022/11/05 06:01:33;;;;;;;21.33;17.70;;;;;;;11.32;78.36;92470.00;5110069;28;20156;-72
2022/11/05 06:03:59;;;;;;;23.13;17.10;;;;;;;11.24;78.72;92459.41;5109751;28;20273;-72
2022/11/05 06:06:24;;;;;;;19.67;17.63;;;;;;;11.23;79.26;92456.06;5107297;28;20326;-71
2022/11/05 06:08:49;;;;;;;20.97;16.97;;;;;;;11.23;80.81;92452.66;5109601;28;20172;-72
2022/11/05 06:11:15;;;;;;;19.37;16.83;;;;;;;11.34;80.20;92457.44;5109860;28;20246;-73
2022/11/05 06:13:40;;;;;;;21.60;17.77;;;;;;;11.31;80.26;92434.47;5109658;28;20203;-71
2022/11/05 06:16:08;;;;;;;22.53;19.23;;;;;;;11.52;79.16;92442.75;5108195;28;20220;-71
2022/11/05 06:18:34;;;;;;;24.27;20.20;;;;;;;11.30;79.96;92456.44;5108756;28;20203;-70
2022/11/05 06:21:01;;;;;;;38.13;21.37;;;;;;;11.05;80.78;92415.03;5108829;28;20223;-72
2022/11/05 06:23:26;;;;;;;27.70;20.33;;;;;;;11.32;81.14;92464.78;5107369;28;20186;-70
2022/11/05 06:25:51;;;;;;;27.87;20.83;;;;;;;11.44;81.39;92456.47;5108825;28;20240;-69
2022/11/05 06:28:17;;;;;;;29.80;20.27;;;;;;;11.49;81.69;92450.41;5108520;28;20194;-70
2022/11/05 06:30:48;;;;;;;31.90;19.37;;;;;;;11.56;81.18;92448.19;5108867;28;20217;-67
2022/11/05 06:33:13;;;;;;;24.53;17.60;;;;;;;11.81;80.44;92455.63;5108676;28;20176;-71
2022/11/05 06:35:39;;;;;;;33.93;19.37;;;;;;;11.95;79.58;92445.94;5106844;28;20249;-68
2022/11/05 06:38:04;;;;;;;26.43;18.13;;;;;;;12.08;78.97;92455.63;5108732;28;20249;-67
2022/11/05 06:40:29;;;;;;;22.00;19.27;;;;;;;12.13;78.85;92456.31;5107574;28;20773;-69
2022/11/05 06:42:55;;;;;;;28.57;17.37;;;;;;;12.11;78.79;92445.34;5107414;28;20199;-70
2022/11/05 06:45:20;;;;;;;22.77;16.33;;;;;;;12.17;78.36;92438.19;5104082;28;20212;-70
2022/11/05 06:47:46;;;;;;;28.27;17.60;;;;;;;12.31;77.94;92446.81;5108955;28;20188;-68
2022/11/05 06:50:11;;;;;;;23.37;18.10;;;;;;;12.43;77.68;92447.09;5109037;28;20216;-72
2022/11/05 06:52:37;;;;;;;20.50;16.93;;;;;;;12.57;76.02;92443.38;5108107;28;20176;-69
2022/11/05 06:55:02;;;;;;;23.77;18.90;;;;;;;12.78;75.06;92443.72;5107738;28;20900;-69
2022/11/05 06:57:28;;;;;;;24.53;16.47;;;;;;;12.88;72.66;92446.13;5109563;28;20244;-70
2022/11/05 06:59:53;;;;;;;17.77;15.90;;;;;;;13.02;71.37;92435.63;5109293;28;20224;-69
2022/11/05 07:02:18;;;;;;;20.00;15.90;;;;;;;12.92;71.88;92428.72;5109613;28;20215;-68
2022/11/05 07:04:44;;;;;;;18.60;15.97;;;;;;;13.08;72.04;92437.81;5108199;28;20281;-71
2022/11/05 07:07:09;;;;;;;17.60;15.77;;;;;;;13.31;70.48;92404.53;5110561;28;20184;-69
2022/11/05 07:09:39;;;;;;;23.90;16.13;;;;;;;13.54;70.24;92430.41;5107895;28;20216;-69
2022/11/05 07:12:05;;;;;;;20.10;16.43;;;;;;;13.50;70.19;92424.22;5107988;28;20223;-69
2022/11/05 07:14:30;;;;;;;19.83;15.50;;;;;;;13.54;69.87;92422.53;5106248;28;20226;-70
2022/11/05 07:16:56;;;;;;;25.90;17.63;;;;;;;13.74;69.75;92423.88;5107397;28;20200;-69
2022/11/05 07:19:21;;;;;;;19.03;17.03;;;;;;;13.80;69.37;92428.72;5106679;28;20199;-70
2022/11/05 07:21:47;;;;;;;23.87;16.20;;;;;;;13.67;69.95;92413.81;5108220;28;21239;-71
2022/11/05 07:24:14;;;;;;;28.83;17.83;;;;;;;13.65;71.63;92431.72;5108523;28;20209;-71
2022/11/05 07:26:40;;;;;;;30.53;18.97;;;;;;;13.61;73.25;92430.00;5107145;28;20191;-71
2022/11/05 07:29:05;;;;;;;23.77;18.40;;;;;;;14.03;70.51;92435.44;5107659;28;20254;-71
2022/11/05 07:31:31;;;;;;;19.83;17.73;;;;;;;14.04;70.49;92426.47;5108113;28;20421;-70
2022/11/05 07:33:58;;;;;;;23.07;18.57;;;;;;;14.01;73.42;92429.72;5107323;28;20204;-70
2022/11/05 07:36:23;;;;;;;21.53;18.73;;;;;;;14.55;69.62;92427.75;5107712;28;20231;-71
2022/11/05 07:38:49;;;;;;;22.07;17.83;;;;;;;14.41;69.47;92418.13;5107222;28;20188;-71
2022/11/05 07:41:14;;;;;;;22.80;18.10;;;;;;;14.63;69.30;92421.72;5108154;28;20211;-70
2022/11/05 07:43:39;;;;;;;23.03;19.03;;;;;;;14.87;68.24;92420.19;5106377;28;20284;-70
2022/11/05 07:46:05;;;;;;;28.80;20.03;;;;;;;14.63;70.14;92409.34;5107841;28;20216;-70
2022/11/05 07:48:30;;;;;;;27.13;19.03;;;;;;;14.85;69.30;92421.59;5107126;28;20237;-70
2022/11/05 07:50:55;;;;;;;24.70;20.67;;;;;;;15.10;68.87;92420.81;5107448;28;20245;-71
2022/11/05 07:53:21;;;;;;;25.73;18.90;;;;;;;14.42;70.77;92406.56;5107211;28;20198;-70
2022/11/05 07:55:46;;;;;;;23.13;18.13;;;;;;;14.79;70.04;92407.03;5105436;28;20215;-70
2022/11/05 07:58:13;;;;;;;22.87;18.63;;;;;;;14.55;70.39;92411.97;5104815;28;20180;-70
2022/11/05 08:00:38;;;;;;;27.03;19.00;;;;;;;14.80;70.00;92413.88;5106180;28;20263;-71
2022/11/05 08:03:15;;;;;;;26.33;20.03;;;;;;;14.91;69.54;92409.84;5108023;28;20184;-71
2022/11/05 08:05:43;;;;;;;24.77;20.07;;;;;;;14.92;69.73;92417.44;5107611;28;20227;-70
2022/11/05 08:08:12;;;;;;;26.83;19.63;;;;;;;14.94;69.25;92417.13;5106338;28;20208;-71
2022/11/05 08:10:38;;;;;;;27.57;18.30;;;;;;;14.84;69.80;92414.78;5108663;28;20219;-70
2022/11/05 08:13:04;;;;;;;22.80;19.47;;;;;;;14.89;68.29;92409.38;5108103;28;20174;-70
2022/11/05 08:15:30;;;;;;;23.93;17.37;;;;;;;14.98;68.01;92397.78;5107594;28;20236;-71
2022/11/05 08:18:03;;;;;;;22.77;19.37;;;;;;;15.17;67.37;92415.88;5107393;28;20200;-70
2022/11/05 08:20:29;;;;;;;19.17;16.80;;;;;;;15.42;66.18;92420.38;5105982;28;20224;-70
2022/11/05 08:22:55;;;;;;;26.37;17.97;;;;;;;15.44;66.17;92402.41;5105291;28;20191;-71
2022/11/05 08:25:21;;;;;;;22.47;18.47;;;;;;;15.53;65.29;92414.44;5107273;28;20228;-71
2022/11/05 08:27:53;;;;;;;21.27;16.73;;;;;;;15.78;63.44;92420.75;5106739;28;20183;-71
2022/11/05 08:30:18;;;;;;;20.80;17.43;;;;;;;15.20;65.39;92415.25;5108470;28;20224;-71
2022/11/05 08:32:44;;;;;;;27.07;18.13;;;;;;;15.57;65.79;92417.22;5107661;28;20218;-71
2022/11/05 08:35:09;;;;;;;23.37;16.60;;;;;;;15.66;65.47;92415.34;5105689;28;20281;-71
2022/11/05 08:37:34;;;;;;;23.93;17.93;;;;;;;15.23;65.46;92412.00;5108603;28;20180;-71
2022/11/05 08:40:00;;;;;;;25.43;18.60;;;;;;;15.35;65.51;92401.59;5107421;28;20267;-70
2022/11/05 08:42:25;;;;;;;20.73;17.13;;;;;;;15.70;64.96;92411.03;5110242;28;20213;-71
2022/11/05 08:44:50;;;;;;;22.60;17.87;;;;;;;15.96;64.00;92414.34;5112299;28;20211;-71
2022/11/05 08:47:16;;;;;;;22.60;17.27;;;;;;;15.99;62.99;92414.47;5111183;28;20278;-71
2022/11/05 08:49:41;;;;;;;24.47;18.87;;;;;;;15.86;63.35;92410.19;5110818;28;20279;-72
2022/11/05 08:52:06;;;;;;;26.30;16.23;;;;;;;15.57;66.46;92407.50;5110722;28;20251;-71
2022/11/05 08:54:32;;;;;;;24.47;17.17;;;;;;;15.69;63.89;92407.59;5111265;28;20318;-71
2022/11/05 08:56:57;;;;;;;21.30;17.90;;;;;;;15.97;62.41;92402.72;5112350;28;20188;-71
2022/11/05 08:59:22;;;;;;;24.03;16.90;;;;;;;15.96;63.13;92412.47;5109267;28;22685;-71
2022/11/05 09:01:49;;;;;;;23.77;19.70;;;;;;;16.04;63.43;92405.63;5110277;28;20172;-71
2022/11/05 09:04:14;;;;;;;26.10;18.47;;;;;;;15.91;63.78;92398.72;5110901;28;20207;-71
2022/11/05 09:06:40;;;;;;;26.57;19.30;;;;;;;15.97;64.62;92403.50;5110217;28;20186;-71
2022/11/05 09:09:05;;;;;;;28.20;20.37;;;;;;;15.93;65.32;92407.06;5109694;28;20198;-72
2022/11/05 09:11:30;;;;;;;27.47;19.63;;;;;;;15.89;65.10;92401.66;5111435;28;20180;-71
2022/11/05 09:13:56;;;;;;;26.17;19.70;;;;;;;16.24;63.32;92398.88;5112611;28;20188;-71
2022/11/05 09:16:24;;;;;;;23.93;19.00;;;;;;;16.12;63.63;92412.72;5110894;28;20227;-71
2022/11/05 09:18:50;;;;;;;24.33;19.93;;;;;;;16.34;63.88;92404.56;5111413;28;20228;-71
2022/11/05 09:21:17;;;;;;;28.37;21.50;;;;;;;16.10;65.01;92412.28;5110167;28;20219;-71
2022/11/05 09:23:43;;;;;;;27.67;20.23;;;;;;;16.43;63.53;92407.16;5111206;28;20192;-71
2022/11/05 09:26:10;;;;;;;30.07;20.77;;;;;;;16.54;62.63;92408.38;5108226;28;20306;-71
2022/11/05 09:28:35;;;;;;;24.77;20.13;;;;;;;16.38;63.93;92405.47;5110749;28;20176;-71
2022/11/05 09:31:05;;;;;;;32.10;20.57;;;;;;;16.26;63.73;92415.16;5109136;28;20228;-71
2022/11/05 09:33:31;;;;;;;34.73;21.60;;;;;;;16.50;62.31;92386.38;5110679;28;20200;-70
2022/11/05 09:35:58;;;;;;;28.67;19.03;;;;;;;16.61;61.50;92404.13;5110973;28;20223;-71
2022/11/05 09:38:23;;;;;;;28.30;20.50;;;;;;;16.34;62.90;92399.31;5111776;28;20188;-71
2022/11/05 09:41:13;;;;;;;28.20;19.30;;;;;;;16.33;62.61;92397.75;5107524;28;20235;-71
2022/11/05 09:43:47;;;;;;;29.80;19.80;;;;;;;15.77;64.04;92400.75;5108387;28;20203;-71
2022/11/05 09:46:20;;;;;;;28.77;21.33;;;;;;;16.35;62.41;92400.84;5110717;28;20224;-71
2022/11/05 09:48:51;;;;;;;28.83;20.03;;;;;;;16.43;62.59;92396.59;5106712;28;20180;-71
2022/11/05 09:51:17;;;;;;;25.47;19.10;;;;;;;16.83;62.02;92390.63;5109191;28;20234;-71
2022/11/05 09:53:44;;;;;;;27.23;19.83;;;;;;;17.08;62.04;92383.63;5106628;28;20172;-71
2022/11/05 09:56:22;;;;;;;25.73;19.07;;;;;;;17.41;59.11;92392.34;5110587;28;20283;-71
2022/11/05 09:58:57;;;;;;;31.57;21.47;;;;;;;17.50;57.79;92378.00;5111115;28;20197;-71
2022/11/05 10:01:35;;;;;;;26.23;19.53;;;;;;;17.26;58.98;92398.97;5109022;28;20241;-71
2022/11/05 10:04:06;;;;;;;27.10;19.00;;;;;;;16.81;61.18;92392.81;5109800;28;20207;-71
2022/11/05 10:06:32;;;;;;;29.10;18.97;;;;;;;17.18;60.54;92391.91;5107072;28;20220;-72
2022/11/05 10:09:23;;;;;;;28.63;20.13;;;;;;;17.29;59.13;92390.41;5110690;28;20240;-72
2022/11/05 10:11:55;;;;;;;29.00;19.67;;;;;;;17.70;57.66;92386.94;5109240;28;20209;-71
2022/11/05 10:14:37;;;;;;;28.47;19.90;;;;;;;17.47;58.22;92373.38;5107676;28;20191;-72
2022/11/05 10:17:21;;;;;;;27.63;19.33;;;;;;;17.53;57.81;92382.63;5110408;28;20172;-72
2022/11/05 10:20:17;;;;;;;23.03;19.33;;;;;;;17.24;58.24;92380.06;5110512;28;20239;-71
2022/11/05 10:22:43;;;;;;;26.33;19.53;;;;;;;17.27;57.87;92379.44;5110932;28;20241;-72
2022/11/05 10:25:19;;;;;;;28.97;19.47;;;;;;;16.32;60.90;92369.88;5110278;28;20225;-72
2022/11/05 10:27:56;;;;;;;27.43;20.37;;;;;;;16.55;61.00;92379.06;5110444;28;20188;-72
2022/11/05 10:30:22;;;;;;;25.80;19.97;;;;;;;16.91;60.00;92371.34;5105359;28;20232;-71
2022/11/05 10:32:51;;;;;;;20.90;18.47;;;;;;;16.99;58.97;92378.44;5110738;28;20200;-71
2022/11/05 10:35:21;;;;;;;27.47;19.67;;;;;;;17.02;58.67;92377.00;5109782;28;20223;-71
2022/11/05 10:37:48;;;;;;;23.83;18.17;;;;;;;16.84;60.46;92371.09;5109092;28;20220;-71
2022/11/05 10:40:29;;;;;;;26.07;20.03;;;;;;;16.70;60.61;92377.72;5109387;28;20212;-71
2022/11/05 10:43:03;;;;;;;23.43;18.90;;;;;;;17.02;58.77;92367.22;5110046;28;20196;-71
2022/11/05 10:45:28;;;;;;;22.27;17.10;;;;;;;17.53;57.10;92377.34;5106190;28;20248;-71
2022/11/05 10:47:54;;;;;;;24.23;18.23;;;;;;;16.91;58.96;92373.22;5109197;28;20204;-71
2022/11/05 10:50:23;;;;;;;27.10;18.43;;;;;;;17.46;56.92;92376.34;5109237;28;20806;-71
2022/11/05 10:53:10;;;;;;;22.80;18.33;;;;;;;17.49;55.93;92365.13;5108069;28;20180;-71
2022/11/05 10:55:40;;;;;;;22.50;17.73;;;;;;;17.39;57.20;92371.53;5109609;28;20231;-71
2022/11/05 10:58:18;;;;;;;23.57;18.27;;;;;;;17.37;56.04;92367.66;5107831;28;20186;-71
2022/11/05 11:01:06;;;;;;;26.33;18.50;;;;;;;17.27;57.29;92365.47;5108669;28;20891;-71
2022/11/05 11:03:46;;;;;;;27.27;18.63;;;;;;;16.97;58.33;92367.41;5107484;28;21028;-71
2022/11/05 11:06:24;;;;;;;28.40;19.60;;;;;;;17.22;57.35;92365.66;5108759;28;20252;-71
2022/11/05 11:08:51;;;;;;;23.40;17.37;;;;;;;17.33;57.08;92364.16;5107408;28;20214;-71
2022/11/05 11:11:36;;;;;;;26.33;19.13;;;;;;;16.88;58.26;92361.44;5107788;28;20236;-71
2022/11/05 11:14:18;;;;;;;24.03;18.07;;;;;;;16.84;58.81;92362.41;5108345;28;20207;-71
2022/11/05 11:16:46;;;;;;;25.20;18.03;;;;;;;16.95;57.75;92342.47;5089348;28;21050;-71
2022/11/05 11:19:38;;;;;;;22.90;18.63;;;;;;;16.96;58.35;92352.69;5086800;28;20212;-71
2022/11/05 11:22:03;;;;;;;27.43;18.33;;;;;;;17.11;57.45;92344.19;5085647;28;20197;-72
2022/11/05 11:24:39;;;;;;;20.90;17.83;;;;;;;17.12;56.02;92351.00;5087757;28;20266;-71
2022/11/05 11:27:09;;;;;;;23.87;17.73;;;;;;;17.38;54.94;92346.25;5087816;28;20208;-71
2022/11/05 11:29:38;;;;;;;22.00;17.90;;;;;;;17.35;55.18;92354.06;5089436;28;20231;-71
2022/11/05 11:32:14;;;;;;;22.53;17.57;;;;;;;17.41;54.61;92358.81;5093415;28;20252;-72
2022/11/05 11:34:41;;;;;;;24.47;16.77;;;;;;;17.64;53.04;92361.84;5098290;28;20242;-72
2022/11/05 11:37:09;;;;;;;18.23;16.33;;;;;;;17.44;53.36;92347.63;5097484;28;20176;-71
2022/11/05 11:39:37;;;;;;;20.27;16.40;;;;;;;17.33;54.01;92351.75;5095536;28;20224;-71
2022/11/05 11:42:18;;;;;;;27.13;16.50;;;;;;;17.19;54.00;92355.75;5087127;28;20189;-71
2022/11/05 11:44:46;;;;;;;17.20;14.60;;;;;;;17.34;54.22;92353.28;5093058;28;20226;-71
2022/11/05 11:47:16;;;;;;;24.03;17.00;;;;;;;17.42;53.71;92354.28;5105458;28;20190;-72
2022/11/05 11:49:59;;;;;;;20.73;15.83;;;;;;;17.42;54.07;92356.91;5108566;28;20220;-71
2022/11/05 11:52:33;;;;;;;21.37;15.17;;;;;;;17.34;54.68;92352.50;5107566;28;20191;-71
2022/11/05 11:55:10;;;;;;;23.27;15.83;;;;;;;17.22;52.15;92347.19;5105485;28;20239;-71
2022/11/05 11:57:48;;;;;;;22.73;15.47;;;;;;;17.21;53.57;92343.00;5108902;28;20210;-71
2022/11/05 12:00:15;;;;;;;20.57;15.00;;;;;;;17.19;52.92;92342.56;5107188;28;20257;-71
2022/11/05 12:02:41;;;;;;;18.97;14.03;;;;;;;17.17;53.66;92348.16;5108177;28;20210;-71
2022/11/05 12:05:30;;;;;;;20.47;15.10;;;;;;;17.21;53.52;92343.75;5098887;28;20224;-71
2022/11/05 12:08:12;;;;;;;23.80;15.73;;;;;;;17.28;52.57;92338.75;5086614;28;20192;-71
2022/11/05 12:11:14;;;;;;;21.37;15.13;;;;;;;17.02;55.50;92342.72;5093037;28;20224;-72
2022/11/05 12:13:58;;;;;;;18.70;16.80;;;;;;;16.60;54.31;92331.44;5080361;28;20203;-72
2022/11/05 12:16:29;;;;;;;21.17;14.87;;;;;;;16.54;55.14;92330.06;5086567;28;20233;-71
2022/11/05 12:19:23;;;;;;;24.40;16.37;;;;;;;16.59;56.38;92331.75;5087516;28;20188;-71